ROMMA est une association bénévole à but non lucratif. Votre soutien est indispensable : ADHERER à ROMMA ou FAIRE un DON

Crest - (26, Drôme)

Vallée de la Drôme (315 m)   Longitude: 5°2' E   Latitude: 44°44' N Station partenaire n°62
 

Détail journalier du     <<     >>

Température Precipitation Humidité Pression Vent Dir Rafale Dir. rafale Ensol.
Heure (°C) (mm) (%) (hPa) (km/h) (km/h) (min)
01:00 16.6062101810SSO21N0
02:00 18.604910189N27NNE0
03:00 16.9058101910N23SSO0
04:00 16.2062101810SSO26NNO0
05:00 15.4066101811SSO26SO0
06:00 14.1072101710SSO21SSO0
07:00 14.2071101713SSO31S0
08:00 14.6070101716SSO29SSO0
09:00 16.9064101814SSO31SSO22
10:00 18.9056101713SSO32N59
11:00 20.3051101719SSO39SSO60
12:00 21.8047101716SSO35NNO60
13:00 23.4042101616SSO34SSO57
14:00 24.1041101613N31SSO50
15:00 24.8037101616N34N23
16:00 26.2035101513N27NNE48
17:00 26.7030101510SSO26SSO60
18:00 26.703010149N24N54
19:00 25.403410149SSO21NE38
20:00 24.403710148SSO19SSO13
21:00 23.004310146SSO16NNO0
22:00 21.004710151SSO8SSO0
23:00 19.105310152SSO5SSO0
minuit 18.305510151SE8SE0

Graphique du 16-08-2019

 

Serveur OMMA